Bartelso, Illinois
Current Conditions -  °F | °C
As of 7:55 AM on Friday 24 Oct 2014 (Local Time) from KENL Reporting Station
Overcast Overcast  
Wind Chill: 52°   Ceiling: 3000
Heat Index: 52°   Visibility: 10mi
Dew Point: 47°   Wind: 0mph
Humidity: 83%   Direction: NA
Pressure: 30.1"   Gusts: NA
Location:  38.54°N, 89.47°W
Report Text: KENL 241255Z AUTO 00000KT 10SM BKN030 BKN044 OVC065 11/08 A3010 RMK AO2 T01110083
Loading
Personal Weather Stations






























Interactive Weather Map New forecast layout! Learn more

10-Day Weather Forecast

Advertisements
Track Severe Weather on mobile